ヨハネスブルグ の空港の天気 - METARとTAF

ヨハネスブルグ/O.R.タンボ国際空港 ( FAOR / JNB ) - 南アフリカ ヨハネスブルグ
飛行場実況気象(Metar)
観測時間11/13 03:00 SAST (11/13 01:00 UTC)
風向・風速南東 3m/s
視程10km以上
天気現象
全天の4割程度の雲 雲底高度 1370m
気温14℃
湿度94%
気圧1019hPa
METARFAOR 130100Z 14005KT 9999 SCT045 14/13 Q1019 NOSIG
過去の天気等 Google飛行場航空写真 Wunderground天気予報

過去48時間のMETAR

飛行場予報(TAF)
発表時間: 11/13 03:00 SAST (11/13 01:00 UTC)
予報対象時間: 13日2時 SAST ~ 14日8時 SAST
風向・風速北北西 6m/s
視程10km以上
全天の4割程度の雲 雲底高度 1370m
13日10時 SAST ~ 13日12時 SAST に徐々に
視程10km以上
なし
13日13時 SAST ~ 13日15時 SAST に徐々に
全天の4割程度の雲 雲底高度 1070m
13日21時 SAST ~ 14日4時 SAST に 確率 40% で一時的に
風向・風速南南西 9m/s 瞬間風速 14m/s
視程5000m
天気現象雷雨
少しの積乱雲 雲底高度 1070m
14日4時 SAST ~ 14日6時 SAST に徐々に
風向・風速北北東 4m/s
視程10km以上
なし
TAF AMD FAOR 130100Z 1300/1406 33012KT 9999 SCT045 TX26/1313Z TN13/1403Z
BECMG 1308/1310 CAVOK
BECMG 1311/1313 SCT035
PROB40 TEMPO 1319/1402 20018G28KT 5000 TSRA FEW035CB
BECMG 1402/1404 03008KT CAVOK